createdAt,value
2018-03-24T00:00:10.629Z,23.37
2018-03-24T00:02:40.096Z,23.73
2018-03-24T00:05:09.938Z,23.53
2018-03-24T00:07:39.421Z,24.23
2018-03-24T00:10:09.424Z,23.57
2018-03-24T00:12:39.289Z,23.20
2018-03-24T00:15:08.774Z,23.00
2018-03-24T00:17:38.234Z,23.50
2018-03-24T00:20:07.714Z,23.83
2018-03-24T00:22:37.160Z,23.00
2018-03-24T00:25:07.220Z,23.93
2018-03-24T00:27:36.680Z,24.60
2018-03-24T00:30:06.528Z,26.17
2018-03-24T00:32:36.008Z,23.73
2018-03-24T00:35:05.862Z,24.87
2018-03-24T00:37:35.317Z,23.60
2018-03-24T00:40:04.712Z,23.70
2018-03-24T00:42:34.562Z,26.00
2018-03-24T00:45:03.787Z,25.37
2018-03-24T00:47:33.272Z,27.10
2018-03-24T00:50:02.735Z,24.97
2018-03-24T00:52:32.598Z,26.47
2018-03-24T00:55:02.256Z,24.93
2018-03-24T00:57:31.526Z,24.83
2018-03-24T01:00:01.009Z,26.00
2018-03-24T01:02:30.472Z,26.63
2018-03-24T01:05:00.318Z,24.67
2018-03-24T01:07:29.438Z,26.23
2018-03-24T01:09:58.900Z,27.43
2018-03-24T01:12:28.766Z,27.70
2018-03-24T01:14:58.236Z,29.87
2018-03-24T01:17:27.680Z,28.93
2018-03-24T01:19:57.126Z,28.23
2018-03-24T01:22:26.587Z,31.63
2018-03-24T01:24:56.043Z,27.83
2018-03-24T01:27:25.486Z,29.37
2018-03-24T01:29:54.960Z,27.83
2018-03-24T01:32:24.402Z,31.30
2018-03-24T01:34:53.862Z,32.63
2018-03-24T01:37:23.320Z,29.13
2018-03-24T01:39:52.777Z,29.37
2018-03-24T01:42:22.224Z,31.87
2018-03-24T01:44:51.673Z,29.77
2018-03-24T01:47:21.518Z,28.50
2018-03-24T01:49:51.014Z,27.97
2018-03-24T01:52:20.469Z,29.53
2018-03-24T01:54:50.122Z,27.70
2018-03-24T01:57:19.568Z,28.37
2018-03-24T01:59:49.024Z,32.17
2018-03-24T02:02:18.485Z,30.50
2018-03-24T02:04:48.158Z,31.63
2018-03-24T02:07:17.829Z,31.67
2018-03-24T02:09:47.675Z,30.13
2018-03-24T02:12:17.124Z,29.40
2018-03-24T02:14:46.574Z,31.03
2018-03-24T02:17:16.017Z,31.83
2018-03-24T02:19:45.294Z,31.80
2018-03-24T02:22:14.411Z,32.60
2018-03-24T02:27:49.060Z,31.37
2018-03-24T02:30:18.337Z,30.90
2018-03-24T02:32:47.623Z,30.47
2018-03-24T02:35:17.079Z,33.57
2018-03-24T02:37:46.582Z,32.27
2018-03-24T02:40:16.233Z,34.83
2018-03-24T02:42:45.685Z,32.73
2018-03-24T02:45:15.142Z,34.13
2018-03-24T02:47:44.608Z,31.30
2018-03-24T02:50:14.538Z,28.50
2018-03-24T02:52:44.407Z,24.87
2018-03-24T02:55:14.073Z,25.90
2018-03-24T02:57:43.927Z,21.30
2018-03-24T03:00:13.588Z,20.63
2018-03-24T03:02:43.445Z,20.90
2018-03-24T03:05:12.904Z,19.47
2018-03-24T03:07:42.775Z,18.80
2018-03-24T03:10:12.426Z,18.70
2018-03-24T03:12:42.280Z,21.07
2018-03-24T03:15:11.736Z,19.13
2018-03-24T03:17:41.198Z,20.30
2018-03-24T03:20:10.485Z,22.87
2018-03-24T03:22:39.944Z,23.93
2018-03-24T03:25:09.803Z,26.33
2018-03-24T03:27:39.264Z,27.27
2018-03-24T03:30:13.958Z,27.03
2018-03-24T03:32:43.234Z,27.77
2018-03-24T03:35:12.688Z,25.40
2018-03-24T03:37:42.154Z,26.00
2018-03-24T03:40:11.616Z,25.43
2018-03-24T03:42:41.475Z,23.47
2018-03-24T03:45:10.938Z,24.43
2018-03-24T03:47:40.997Z,24.87
2018-03-24T03:50:10.758Z,25.53
2018-03-24T03:52:40.620Z,25.70
2018-03-24T03:55:10.086Z,27.37
2018-03-24T03:57:39.940Z,28.20
2018-03-24T04:00:09.704Z,26.53
2018-03-24T04:02:39.572Z,26.90
2018-03-24T04:05:09.076Z,25.93
2018-03-24T04:07:38.593Z,28.60
2018-03-24T04:10:08.582Z,27.53
2018-03-24T04:12:38.628Z,25.17
2018-03-24T04:15:08.096Z,24.47
2018-03-24T04:17:37.553Z,25.33
2018-03-24T04:20:06.684Z,26.90
2018-03-24T04:22:36.530Z,28.23
2018-03-24T04:25:05.792Z,30.23
2018-03-24T04:27:35.671Z,28.67
2018-03-24T04:30:04.232Z,29.50
2018-03-24T04:32:33.695Z,29.57
2018-03-24T04:35:03.543Z,30.10
2018-03-24T04:37:32.994Z,31.23
2018-03-24T04:40:02.458Z,32.70
2018-03-24T04:42:31.916Z,33.93
2018-03-24T04:45:01.796Z,33.80
2018-03-24T04:47:31.255Z,31.47
2018-03-24T04:50:00.718Z,31.90
2018-03-24T04:52:30.174Z,31.77
2018-03-24T04:54:59.653Z,30.37
2018-03-24T04:57:29.512Z,29.80
2018-03-24T04:59:58.971Z,30.30
2018-03-24T05:02:28.830Z,29.90
2018-03-24T05:04:58.283Z,33.30
2018-03-24T05:07:28.140Z,31.47
2018-03-24T05:09:57.586Z,32.13
2018-03-24T05:12:27.041Z,33.17
2018-03-24T05:14:56.518Z,32.50
2018-03-24T05:17:26.375Z,30.23
2018-03-24T05:19:55.836Z,29.10
2018-03-24T05:22:25.687Z,27.77
2018-03-24T05:24:55.358Z,27.40
2018-03-24T05:27:25.430Z,26.40
2018-03-24T05:29:54.890Z,24.10
2018-03-24T05:32:24.343Z,23.57
2018-03-24T05:34:53.786Z,24.00
2018-03-24T05:37:23.639Z,24.07
2018-03-24T05:39:53.095Z,26.73
2018-03-24T05:42:22.967Z,26.97
2018-03-24T05:44:52.419Z,27.80
2018-03-24T05:47:22.282Z,26.87
2018-03-24T05:49:51.761Z,26.90
2018-03-24T05:52:21.225Z,27.17
2018-03-24T05:54:50.689Z,27.10
2018-03-24T05:57:20.159Z,24.90
2018-03-24T05:59:50.199Z,20.00
2018-03-24T06:02:19.645Z,18.70
2018-03-24T06:04:49.119Z,20.90
2018-03-24T06:07:18.576Z,17.83
2018-03-24T06:09:48.496Z,18.27
2018-03-24T06:12:17.950Z,19.13
2018-03-24T06:14:47.408Z,20.20
2018-03-24T06:17:17.248Z,21.30
2018-03-24T06:19:46.710Z,20.50
2018-03-24T06:22:16.164Z,18.97
2018-03-24T06:24:45.613Z,20.40
2018-03-24T06:27:15.092Z,20.93
2018-03-24T06:29:44.353Z,20.20
2018-03-24T06:32:13.993Z,20.73
2018-03-24T06:34:43.255Z,19.83
2018-03-24T06:37:19.393Z,20.83
2018-03-24T06:39:48.869Z,21.07
2018-03-24T06:42:18.323Z,21.23
2018-03-24T06:44:47.842Z,22.80
2018-03-24T06:47:17.911Z,20.90
2018-03-24T06:49:47.368Z,20.93
2018-03-24T06:52:16.821Z,18.43
2018-03-24T06:54:46.266Z,19.40
2018-03-24T06:57:15.715Z,19.57
2018-03-24T06:59:45.182Z,18.70
2018-03-24T07:02:14.668Z,17.93
2018-03-24T07:04:44.503Z,16.83
2018-03-24T07:07:13.978Z,15.50
2018-03-24T07:09:43.420Z,14.90
2018-03-24T07:12:12.861Z,15.70
2018-03-24T07:14:42.305Z,15.87
2018-03-24T07:17:12.155Z,16.77
2018-03-24T07:19:41.793Z,15.13
2018-03-24T07:22:11.243Z,13.73
2018-03-24T07:24:40.692Z,14.93
2018-03-24T07:27:10.156Z,15.33
2018-03-24T07:29:39.612Z,14.60
2018-03-24T07:32:09.061Z,14.90
2018-03-24T07:34:39.087Z,14.20
2018-03-24T07:37:08.544Z,13.83
2018-03-24T07:39:38.018Z,14.37
2018-03-24T07:42:07.508Z,12.03
2018-03-24T07:44:37.161Z,11.40
2018-03-24T07:47:06.275Z,11.20
2018-03-24T07:49:36.153Z,11.13
2018-03-24T07:52:05.608Z,10.03
2018-03-24T07:54:35.459Z,10.10
2018-03-24T07:57:04.920Z,10.37
2018-03-24T07:59:34.596Z,10.07
2018-03-24T08:02:04.052Z,10.37
2018-03-24T08:04:33.506Z,10.80
2018-03-24T08:07:02.965Z,10.20
2018-03-24T08:09:32.413Z,10.10
2018-03-24T08:12:01.881Z,10.17
2018-03-24T08:14:31.346Z,10.07
2018-03-24T08:17:00.814Z,9.60
2018-03-24T08:19:30.445Z,10.23
2018-03-24T08:21:59.915Z,9.90
2018-03-24T08:24:29.370Z,9.90
2018-03-24T08:26:59.235Z,10.07
2018-03-24T08:29:28.693Z,10.13
2018-03-24T08:31:58.545Z,9.77
2018-03-24T08:34:27.997Z,10.60
2018-03-24T08:36:57.461Z,9.33
2018-03-24T08:39:26.915Z,10.33
2018-03-24T08:41:56.353Z,10.43
2018-03-24T08:44:25.799Z,9.40
2018-03-24T08:46:55.242Z,9.57
2018-03-24T08:49:24.697Z,9.53
2018-03-24T08:51:54.138Z,8.50
2018-03-24T08:54:24.003Z,9.63
2018-03-24T08:56:53.441Z,9.33
2018-03-24T08:59:22.879Z,9.03
2018-03-24T09:01:52.332Z,9.80
2018-03-24T09:04:21.767Z,8.87
2018-03-24T09:06:51.641Z,9.17
2018-03-24T09:09:21.083Z,8.43
2018-03-24T09:11:50.520Z,8.57
2018-03-24T09:14:19.965Z,7.70
2018-03-24T09:16:49.428Z,8.27
2018-03-24T09:19:18.880Z,7.93
2018-03-24T09:21:48.323Z,8.33
2018-03-24T09:24:18.178Z,8.27
2018-03-24T09:26:47.632Z,7.30
2018-03-24T09:29:17.481Z,7.60
2018-03-24T09:31:46.924Z,8.17
2018-03-24T09:34:16.359Z,7.23
2018-03-24T09:36:46.203Z,6.87
2018-03-24T09:39:15.655Z,7.17
2018-03-24T09:41:45.274Z,7.57
2018-03-24T09:44:15.147Z,7.70
2018-03-24T09:46:44.603Z,7.40
2018-03-24T09:49:14.443Z,7.10
2018-03-24T09:51:44.566Z,7.30
2018-03-24T09:54:14.031Z,7.50
2018-03-24T09:56:43.891Z,6.70
2018-03-24T09:59:13.322Z,6.77
2018-03-24T10:01:42.757Z,6.50
2018-03-24T10:04:12.602Z,6.60
2018-03-24T10:06:42.049Z,6.20
2018-03-24T10:09:11.502Z,5.90
2018-03-24T10:11:40.942Z,5.80
2018-03-24T10:14:10.388Z,6.03
2018-03-24T10:16:40.230Z,5.90
2018-03-24T10:19:09.691Z,6.57
2018-03-24T10:24:50.234Z,7.20
2018-03-24T10:27:19.690Z,6.93
2018-03-24T10:29:49.532Z,6.37
2018-03-24T10:32:18.970Z,6.17
2018-03-24T10:34:53.704Z,6.57
2018-03-24T10:37:23.164Z,6.17
2018-03-24T10:39:52.620Z,7.10
2018-03-24T10:42:22.136Z,6.87
2018-03-24T10:44:51.602Z,6.90
2018-03-24T10:47:21.046Z,7.00
2018-03-24T10:49:50.298Z,6.80
2018-03-24T10:52:19.766Z,6.53
2018-03-24T10:54:49.342Z,6.83
2018-03-24T10:57:18.802Z,6.73
2018-03-24T10:59:48.062Z,6.40
2018-03-24T11:02:17.317Z,6.67
2018-03-24T11:04:46.964Z,6.87
2018-03-24T11:07:16.418Z,7.10
2018-03-24T11:09:45.873Z,6.90
2018-03-24T11:12:15.325Z,6.97
2018-03-24T11:14:44.793Z,6.90
2018-03-24T11:17:14.246Z,7.37
2018-03-24T11:19:43.690Z,7.00
2018-03-24T11:22:13.144Z,6.60
2018-03-24T11:24:42.566Z,7.07
2018-03-24T11:27:11.922Z,7.53
2018-03-24T11:29:41.826Z,6.50
2018-03-24T11:32:11.466Z,7.50
2018-03-24T11:34:40.915Z,6.93
2018-03-24T11:37:10.375Z,7.33
2018-03-24T11:39:39.828Z,6.53
2018-03-24T11:42:09.266Z,7.03
2018-03-24T11:44:39.136Z,7.47
2018-03-24T11:47:08.596Z,6.73
2018-03-24T11:49:38.448Z,6.40
2018-03-24T11:52:08.912Z,6.87
2018-03-24T11:54:45.378Z,6.60
2018-03-24T11:57:14.833Z,7.00
2018-03-24T11:59:44.316Z,6.67
2018-03-24T12:02:14.186Z,7.13
2018-03-24T12:04:43.929Z,6.73
2018-03-24T12:07:13.794Z,6.57
2018-03-24T12:09:43.261Z,6.93
2018-03-24T12:12:12.722Z,6.40
2018-03-24T12:14:42.194Z,6.57
2018-03-24T12:17:11.664Z,6.87
2018-03-24T12:19:41.782Z,8.07
2018-03-24T12:22:11.677Z,7.13
2018-03-24T12:24:42.152Z,7.13
2018-03-24T12:27:11.615Z,7.50
2018-03-24T12:29:41.270Z,6.73
2018-03-24T12:32:10.715Z,6.67
2018-03-24T12:34:40.170Z,6.50
2018-03-24T12:37:09.855Z,7.33
2018-03-24T12:39:39.735Z,7.43
2018-03-24T12:42:09.191Z,6.93
2018-03-24T12:44:38.636Z,7.50
2018-03-24T12:47:08.099Z,7.30
2018-03-24T12:49:37.958Z,7.30
2018-03-24T12:52:07.475Z,6.90
2018-03-24T12:54:36.968Z,7.23
2018-03-24T12:57:06.440Z,7.47
2018-03-24T12:59:35.903Z,7.70
2018-03-24T13:02:05.355Z,7.37
2018-03-24T13:04:34.807Z,7.17
2018-03-24T13:07:04.020Z,7.60
2018-03-24T13:09:33.483Z,7.13
2018-03-24T13:12:02.943Z,7.23
2018-03-24T13:14:32.996Z,7.43
2018-03-24T13:17:02.444Z,7.40
2018-03-24T13:19:31.888Z,7.20
2018-03-24T13:22:01.674Z,6.53
2018-03-24T13:24:31.527Z,6.90
2018-03-24T13:27:00.977Z,7.10
2018-03-24T13:29:30.437Z,6.63
2018-03-24T13:31:59.982Z,7.20
2018-03-24T13:34:29.589Z,6.47
2018-03-24T13:36:59.257Z,6.50
2018-03-24T13:39:28.720Z,6.23
2018-03-24T13:41:58.194Z,6.23
2018-03-24T13:44:27.702Z,6.13
2018-03-24T13:46:57.191Z,6.43
2018-03-24T13:49:27.638Z,6.23
2018-03-24T13:51:57.403Z,6.57
2018-03-24T13:54:26.890Z,6.43
2018-03-24T13:56:56.738Z,6.50
2018-03-24T13:59:26.196Z,6.73
2018-03-24T14:01:55.652Z,6.57
2018-03-24T14:04:25.120Z,7.03
2018-03-24T14:06:54.983Z,7.40
2018-03-24T14:09:24.832Z,7.07
2018-03-24T14:11:54.285Z,6.90
2018-03-24T14:14:23.734Z,6.93
2018-03-24T14:16:53.464Z,6.60
2018-03-24T14:19:23.338Z,6.87
2018-03-24T14:21:52.606Z,7.03
2018-03-24T14:24:22.074Z,7.00
2018-03-24T14:26:51.253Z,6.57
2018-03-24T14:29:20.700Z,7.07
2018-03-24T14:31:50.154Z,6.70
2018-03-24T14:34:19.628Z,7.43
2018-03-24T14:36:49.110Z,6.90
2018-03-24T14:39:18.302Z,7.30
2018-03-24T14:41:48.146Z,7.00
2018-03-24T14:44:17.616Z,8.00
2018-03-24T14:46:47.564Z,6.30
2018-03-24T14:49:17.704Z,7.30
2018-03-24T14:51:47.189Z,6.70
2018-03-24T14:54:16.624Z,7.40
2018-03-24T14:56:46.118Z,7.37
2018-03-24T14:59:15.788Z,7.50
2018-03-24T15:01:44.961Z,6.73
2018-03-24T15:04:14.414Z,7.03
2018-03-24T15:06:43.954Z,6.80
2018-03-24T15:09:13.406Z,6.10
2018-03-24T15:11:42.889Z,6.70
2018-03-24T15:14:12.746Z,6.47
2018-03-24T15:16:42.440Z,5.93
2018-03-24T15:19:12.660Z,6.83
2018-03-24T15:21:42.118Z,6.63
2018-03-24T15:24:11.579Z,6.67
2018-03-24T15:26:41.044Z,7.10
2018-03-24T15:29:27.593Z,6.83
2018-03-24T15:32:13.909Z,6.83
2018-03-24T15:35:00.144Z,6.93
2018-03-24T15:37:29.638Z,6.13
2018-03-24T15:39:59.082Z,6.30
2018-03-24T15:42:28.531Z,6.67
2018-03-24T15:44:58.007Z,6.90
2018-03-24T15:47:27.472Z,6.03
2018-03-24T15:49:57.343Z,7.13
2018-03-24T15:52:26.802Z,6.77
2018-03-24T15:54:56.682Z,6.53
2018-03-24T15:57:26.166Z,6.40
2018-03-24T15:59:55.672Z,6.23
2018-03-24T16:02:25.407Z,7.00
2018-03-24T16:04:55.394Z,6.13
2018-03-24T16:07:24.879Z,6.40
2018-03-24T16:09:54.352Z,6.40
2018-03-24T16:12:23.841Z,6.07
2018-03-24T16:14:53.291Z,6.40
2018-03-24T16:17:22.634Z,5.90
2018-03-24T16:19:52.126Z,6.27
2018-03-24T16:22:21.599Z,7.03
2018-03-24T16:24:51.080Z,7.00
2018-03-24T16:27:21.004Z,7.07
2018-03-24T16:29:50.465Z,6.60
2018-03-24T16:32:19.925Z,7.03
2018-03-24T16:34:49.379Z,6.80
2018-03-24T16:37:18.852Z,6.77
2018-03-24T16:39:48.329Z,6.77
2018-03-24T16:42:17.804Z,6.97
2018-03-24T16:44:47.277Z,7.50
2018-03-24T16:47:16.756Z,7.60
2018-03-24T16:49:46.230Z,7.23
2018-03-24T16:52:15.817Z,7.13
2018-03-24T16:54:45.748Z,7.57
2018-03-24T16:57:15.230Z,7.17
2018-03-24T16:59:44.835Z,7.10
2018-03-24T17:02:14.475Z,7.20
2018-03-24T17:04:44.371Z,7.10
2018-03-24T17:07:13.950Z,6.97
2018-03-24T17:09:43.612Z,7.10
2018-03-24T17:12:14.266Z,7.03
2018-03-24T17:14:43.737Z,7.20
2018-03-24T17:17:13.226Z,7.10
2018-03-24T17:19:42.755Z,7.43
2018-03-24T17:22:13.399Z,7.60
2018-03-24T17:24:43.293Z,7.30
2018-03-24T17:27:12.754Z,7.53
2018-03-24T17:29:42.409Z,7.20
2018-03-24T17:32:12.503Z,7.50
2018-03-24T17:34:41.989Z,7.23
2018-03-24T17:37:11.427Z,7.47
2018-03-24T17:39:40.873Z,7.63
2018-03-24T17:42:10.357Z,8.10
2018-03-24T17:44:40.193Z,7.67
2018-03-24T17:47:09.739Z,7.33
2018-03-24T17:49:39.273Z,8.00
2018-03-24T17:52:08.869Z,8.90
2018-03-24T17:54:38.319Z,8.63
2018-03-24T17:57:07.795Z,8.70
2018-03-24T17:59:37.453Z,8.53
2018-03-24T18:02:07.147Z,8.77
2018-03-24T18:04:36.809Z,8.43
2018-03-24T18:07:08.013Z,8.73
2018-03-24T18:09:37.649Z,9.07
2018-03-24T18:12:07.137Z,8.67
2018-03-24T18:14:36.571Z,8.83
2018-03-24T18:17:06.011Z,9.20
2018-03-24T18:19:35.472Z,9.60
2018-03-24T18:22:05.099Z,9.23
2018-03-24T18:24:34.571Z,9.50
2018-03-24T18:27:04.014Z,8.93
2018-03-24T18:29:34.077Z,9.73
2018-03-24T18:32:03.563Z,9.83
2018-03-24T18:34:33.253Z,9.60
2018-03-24T18:37:02.985Z,9.40
2018-03-24T18:39:32.488Z,9.27
2018-03-24T18:42:01.444Z,9.63
2018-03-24T18:44:31.081Z,9.73
2018-03-24T18:47:00.619Z,10.30
2018-03-24T18:49:30.055Z,9.37
2018-03-24T18:51:59.520Z,11.27
2018-03-24T18:54:29.367Z,9.77
2018-03-24T18:56:59.367Z,10.00
2018-03-24T18:59:28.837Z,10.30
2018-03-24T19:01:58.511Z,10.40
2018-03-24T19:04:28.371Z,12.20
2018-03-24T19:06:57.897Z,11.93
2018-03-24T19:09:27.630Z,11.43
2018-03-24T19:11:57.559Z,9.63
2018-03-24T19:14:27.017Z,10.93
2018-03-24T19:16:56.519Z,10.70
2018-03-24T19:19:26.105Z,11.27
2018-03-24T19:21:55.575Z,11.17
2018-03-24T19:24:25.034Z,11.13
2018-03-24T19:26:54.779Z,10.90
2018-03-24T19:29:24.369Z,10.97
2018-03-24T19:31:54.179Z,11.20
2018-03-24T19:34:23.773Z,11.00
2018-03-24T19:36:53.351Z,11.47
2018-03-24T19:39:23.739Z,10.80
2018-03-24T19:41:53.988Z,11.17
2018-03-24T19:44:23.621Z,12.23
2018-03-24T19:46:53.871Z,11.10
2018-03-24T19:49:23.717Z,11.77
2018-03-24T19:51:53.959Z,11.67
2018-03-24T19:54:23.603Z,11.53
2018-03-24T19:56:53.183Z,11.23
2018-03-24T19:59:23.413Z,12.00
2018-03-24T20:01:53.649Z,11.80
2018-03-24T20:04:23.548Z,11.80
2018-03-24T20:06:53.421Z,11.60
2018-03-24T20:09:23.452Z,11.23
2018-03-24T20:11:53.265Z,11.33
2018-03-24T20:14:23.311Z,11.07
2018-03-24T20:16:53.590Z,11.00
2018-03-24T20:19:24.711Z,11.83
2018-03-24T20:21:54.573Z,12.33
2018-03-24T20:24:24.229Z,12.13
2018-03-24T20:26:53.897Z,11.87
2018-03-24T20:29:23.763Z,12.23
2018-03-24T20:31:53.388Z,12.27
2018-03-24T20:34:23.446Z,11.70
2018-03-24T20:36:53.095Z,12.30
2018-03-24T20:39:22.966Z,12.70
2018-03-24T20:41:52.849Z,11.60
2018-03-24T20:44:22.873Z,12.60
2018-03-24T20:46:53.677Z,11.43
2018-03-24T20:49:23.305Z,12.17
2018-03-24T20:51:52.915Z,11.43
2018-03-24T20:54:22.747Z,11.37
2018-03-24T20:56:52.360Z,11.47
2018-03-24T20:59:21.843Z,13.23
2018-03-24T21:01:51.319Z,12.57
2018-03-24T21:04:20.797Z,12.03
2018-03-24T21:06:50.655Z,12.23
2018-03-24T21:09:20.297Z,12.17
2018-03-24T21:11:49.796Z,12.83
2018-03-24T21:14:19.373Z,12.37
2018-03-24T21:16:48.971Z,11.93
2018-03-24T21:19:18.449Z,11.53
2018-03-24T21:21:48.399Z,11.80
2018-03-24T21:24:17.985Z,11.43
2018-03-24T21:26:48.063Z,12.40
2018-03-24T21:29:17.608Z,12.00
2018-03-24T21:31:47.071Z,11.13
2018-03-24T21:34:16.531Z,11.97
2018-03-24T21:36:46.049Z,11.00
2018-03-24T21:39:15.543Z,10.73
2018-03-24T21:41:45.231Z,12.33
2018-03-24T21:44:15.089Z,12.27
2018-03-24T21:46:44.770Z,11.40
2018-03-24T21:49:14.344Z,11.60
2018-03-24T21:51:43.829Z,11.03
2018-03-24T21:54:13.582Z,11.47
2018-03-24T21:56:43.442Z,11.63
2018-03-24T21:59:12.886Z,11.60
2018-03-24T22:01:42.732Z,11.90
2018-03-24T22:04:12.171Z,11.07
2018-03-24T22:06:41.639Z,10.50
2018-03-24T22:09:11.367Z,10.50
2018-03-24T22:11:41.163Z,10.63
2018-03-24T22:14:12.616Z,11.03
2018-03-24T22:16:42.106Z,10.63
2018-03-24T22:19:13.452Z,11.87
2018-03-24T22:21:43.040Z,11.30
2018-03-24T22:24:12.931Z,10.67
2018-03-24T22:26:42.877Z,11.27
2018-03-24T22:29:12.804Z,11.17
2018-03-24T22:31:42.266Z,10.03
2018-03-24T22:34:19.129Z,11.60
2018-03-24T22:36:56.547Z,12.20
2018-03-24T22:39:32.284Z,11.77
2018-03-24T22:42:02.513Z,10.93
2018-03-24T22:44:31.998Z,10.83
2018-03-24T22:47:03.294Z,10.70
2018-03-24T22:49:32.893Z,11.10
2018-03-24T22:52:02.766Z,11.67
2018-03-24T22:54:32.236Z,10.97
2018-03-24T22:57:01.792Z,11.60
2018-03-24T22:59:31.252Z,11.73
2018-03-24T23:02:00.692Z,12.03
2018-03-24T23:04:30.162Z,12.37
2018-03-24T23:06:59.620Z,10.30
2018-03-24T23:09:29.122Z,11.27
2018-03-24T23:11:59.519Z,11.60
2018-03-24T23:14:29.009Z,11.80
2018-03-24T23:16:59.834Z,11.70
2018-03-24T23:19:29.307Z,11.30
2018-03-24T23:21:58.802Z,11.33
2018-03-24T23:24:28.266Z,11.10
2018-03-24T23:26:57.749Z,11.83
2018-03-24T23:33:03.616Z,11.03
2018-03-24T23:35:33.470Z,11.70
2018-03-24T23:38:03.430Z,11.60
2018-03-24T23:40:32.706Z,11.87
2018-03-24T23:43:02.155Z,12.03
2018-03-24T23:45:32.042Z,11.67
2018-03-24T23:48:01.500Z,11.47
2018-03-24T23:50:30.977Z,12.13
2018-03-24T23:53:00.472Z,11.90
2018-03-24T23:55:30.344Z,10.87
2018-03-24T23:57:59.856Z,11.03
